sensor_id;sensor_type;location;lat;lon;timestamp;temperature;humidity
22364;DHT22;11349;53.412;-1.328;2023-04-15T00:01:23;7.10;99.90
22364;DHT22;11349;53.412;-1.328;2023-04-15T00:03:53;7.00;99.90
22364;DHT22;11349;53.412;-1.328;2023-04-15T00:06:20;7.10;99.90
22364;DHT22;11349;53.412;-1.328;2023-04-15T00:08:46;7.10;99.90
22364;DHT22;11349;53.412;-1.328;2023-04-15T00:11:13;7.10;99.90
22364;DHT22;11349;53.412;-1.328;2023-04-15T00:13:39;7.10;99.90
22364;DHT22;11349;53.412;-1.328;2023-04-15T00:16:06;7.00;99.90
22364;DHT22;11349;53.412;-1.328;2023-04-15T00:18:33;7.10;99.90
22364;DHT22;11349;53.412;-1.328;2023-04-15T00:20:59;6.90;99.90
22364;DHT22;11349;53.412;-1.328;2023-04-15T00:23:25;7.00;99.90
22364;DHT22;11349;53.412;-1.328;2023-04-15T00:25:51;7.00;99.90
22364;DHT22;11349;53.412;-1.328;2023-04-15T00:28:17;7.00;99.90
22364;DHT22;11349;53.412;-1.328;2023-04-15T00:30:43;6.90;99.90
22364;DHT22;11349;53.412;-1.328;2023-04-15T00:33:09;7.00;99.90
22364;DHT22;11349;53.412;-1.328;2023-04-15T00:35:35;7.00;99.90
22364;DHT22;11349;53.412;-1.328;2023-04-15T00:38:03;7.00;99.90
22364;DHT22;11349;53.412;-1.328;2023-04-15T00:40:29;6.90;99.90
22364;DHT22;11349;53.412;-1.328;2023-04-15T00:42:55;6.90;99.90
22364;DHT22;11349;53.412;-1.328;2023-04-15T00:45:21;6.90;99.90
22364;DHT22;11349;53.412;-1.328;2023-04-15T00:47:47;6.80;99.90
22364;DHT22;11349;53.412;-1.328;2023-04-15T00:50:13;6.80;99.90
22364;DHT22;11349;53.412;-1.328;2023-04-15T00:52:39;6.80;99.90
22364;DHT22;11349;53.412;-1.328;2023-04-15T00:55:06;6.80;99.90
22364;DHT22;11349;53.412;-1.328;2023-04-15T00:57:33;6.80;99.90
22364;DHT22;11349;53.412;-1.328;2023-04-15T00:59:59;6.80;99.90
22364;DHT22;11349;53.412;-1.328;2023-04-15T01:02:26;6.80;99.90
22364;DHT22;11349;53.412;-1.328;2023-04-15T01:04:51;6.80;99.90
22364;DHT22;11349;53.412;-1.328;2023-04-15T01:07:17;6.80;99.90
22364;DHT22;11349;53.412;-1.328;2023-04-15T01:09:43;6.80;99.90
22364;DHT22;11349;53.412;-1.328;2023-04-15T01:12:11;6.80;99.90
22364;DHT22;11349;53.412;-1.328;2023-04-15T01:14:39;6.80;99.90
22364;DHT22;11349;53.412;-1.328;2023-04-15T01:17:05;6.80;99.90
22364;DHT22;11349;53.412;-1.328;2023-04-15T01:19:31;6.80;99.90
22364;DHT22;11349;53.412;-1.328;2023-04-15T01:21:57;6.80;99.90
22364;DHT22;11349;53.412;-1.328;2023-04-15T01:24:25;6.70;99.90
22364;DHT22;11349;53.412;-1.328;2023-04-15T01:26:52;6.70;99.90
22364;DHT22;11349;53.412;-1.328;2023-04-15T01:29:18;6.70;99.90
22364;DHT22;11349;53.412;-1.328;2023-04-15T01:31:51;6.80;99.90
22364;DHT22;11349;53.412;-1.328;2023-04-15T01:34:17;6.70;99.90
22364;DHT22;11349;53.412;-1.328;2023-04-15T01:36:43;6.70;99.90
22364;DHT22;11349;53.412;-1.328;2023-04-15T01:39:09;6.70;99.90
22364;DHT22;11349;53.412;-1.328;2023-04-15T01:41:35;6.70;99.90
22364;DHT22;11349;53.412;-1.328;2023-04-15T01:44:01;6.60;99.90
22364;DHT22;11349;53.412;-1.328;2023-04-15T01:46:26;6.60;99.90
22364;DHT22;11349;53.412;-1.328;2023-04-15T01:48:52;6.70;99.90
22364;DHT22;11349;53.412;-1.328;2023-04-15T01:51:18;6.70;99.90
22364;DHT22;11349;53.412;-1.328;2023-04-15T01:53:44;6.70;99.90
22364;DHT22;11349;53.412;-1.328;2023-04-15T01:56:10;6.80;99.90
22364;DHT22;11349;53.412;-1.328;2023-04-15T01:58:36;6.80;99.90
22364;DHT22;11349;53.412;-1.328;2023-04-15T02:01:02;6.80;99.90
22364;DHT22;11349;53.412;-1.328;2023-04-15T02:03:29;6.80;99.90
22364;DHT22;11349;53.412;-1.328;2023-04-15T02:05:54;6.80;99.90
22364;DHT22;11349;53.412;-1.328;2023-04-15T02:08:21;6.80;99.90
22364;DHT22;11349;53.412;-1.328;2023-04-15T02:10:47;6.80;99.90
22364;DHT22;11349;53.412;-1.328;2023-04-15T02:13:12;6.80;99.90
22364;DHT22;11349;53.412;-1.328;2023-04-15T02:15:39;6.70;99.90
22364;DHT22;11349;53.412;-1.328;2023-04-15T02:18:04;6.80;99.90
22364;DHT22;11349;53.412;-1.328;2023-04-15T02:20:30;6.70;99.90
22364;DHT22;11349;53.412;-1.328;2023-04-15T02:22:56;6.80;99.90
22364;DHT22;11349;53.412;-1.328;2023-04-15T02:25:22;6.70;99.90
22364;DHT22;11349;53.412;-1.328;2023-04-15T02:27:48;6.80;99.90
22364;DHT22;11349;53.412;-1.328;2023-04-15T02:30:14;6.70;99.90
22364;DHT22;11349;53.412;-1.328;2023-04-15T02:32:40;6.70;99.90
22364;DHT22;11349;53.412;-1.328;2023-04-15T02:35:08;6.70;99.90
22364;DHT22;11349;53.412;-1.328;2023-04-15T02:37:36;6.70;99.90
22364;DHT22;11349;53.412;-1.328;2023-04-15T02:40:14;6.70;99.90
22364;DHT22;11349;53.412;-1.328;2023-04-15T02:42:40;6.70;99.90
22364;DHT22;11349;53.412;-1.328;2023-04-15T02:45:07;6.70;99.90
22364;DHT22;11349;53.412;-1.328;2023-04-15T02:47:34;6.70;99.90
22364;DHT22;11349;53.412;-1.328;2023-04-15T02:50:03;6.70;99.90
22364;DHT22;11349;53.412;-1.328;2023-04-15T02:52:29;6.60;99.90
22364;DHT22;11349;53.412;-1.328;2023-04-15T02:54:54;6.60;99.90
22364;DHT22;11349;53.412;-1.328;2023-04-15T02:57:25;6.60;99.90
22364;DHT22;11349;53.412;-1.328;2023-04-15T02:59:55;6.60;99.90
22364;DHT22;11349;53.412;-1.328;2023-04-15T03:02:21;6.50;99.90
22364;DHT22;11349;53.412;-1.328;2023-04-15T03:04:46;6.50;99.90
22364;DHT22;11349;53.412;-1.328;2023-04-15T03:07:13;6.50;99.90
22364;DHT22;11349;53.412;-1.328;2023-04-15T03:09:38;6.40;99.90
22364;DHT22;11349;53.412;-1.328;2023-04-15T03:12:05;6.50;99.90
22364;DHT22;11349;53.412;-1.328;2023-04-15T03:14:31;6.50;99.90
22364;DHT22;11349;53.412;-1.328;2023-04-15T03:16:57;6.40;99.90
22364;DHT22;11349;53.412;-1.328;2023-04-15T03:19:24;6.40;99.90
22364;DHT22;11349;53.412;-1.328;2023-04-15T03:21:50;6.30;99.90
22364;DHT22;11349;53.412;-1.328;2023-04-15T03:24:16;6.40;99.90
22364;DHT22;11349;53.412;-1.328;2023-04-15T03:26:42;6.30;99.90
22364;DHT22;11349;53.412;-1.328;2023-04-15T03:29:08;6.30;99.90
22364;DHT22;11349;53.412;-1.328;2023-04-15T03:31:34;6.20;99.90
22364;DHT22;11349;53.412;-1.328;2023-04-15T03:34:00;6.20;99.90
22364;DHT22;11349;53.412;-1.328;2023-04-15T03:36:27;6.20;99.90
22364;DHT22;11349;53.412;-1.328;2023-04-15T03:38:53;6.30;99.90
22364;DHT22;11349;53.412;-1.328;2023-04-15T03:41:20;6.30;99.90
22364;DHT22;11349;53.412;-1.328;2023-04-15T03:43:46;6.30;99.90
22364;DHT22;11349;53.412;-1.328;2023-04-15T03:46:11;6.20;99.90
22364;DHT22;11349;53.412;-1.328;2023-04-15T03:48:37;6.20;99.90
22364;DHT22;11349;53.412;-1.328;2023-04-15T03:51:03;6.30;99.90
22364;DHT22;11349;53.412;-1.328;2023-04-15T03:53:28;6.20;99.90
22364;DHT22;11349;53.412;-1.328;2023-04-15T03:55:54;6.20;99.90
22364;DHT22;11349;53.412;-1.328;2023-04-15T03:58:20;6.20;99.90
22364;DHT22;11349;53.412;-1.328;2023-04-15T04:00:46;6.10;99.90
22364;DHT22;11349;53.412;-1.328;2023-04-15T04:03:11;6.00;99.90
22364;DHT22;11349;53.412;-1.328;2023-04-15T04:05:37;6.00;99.90
22364;DHT22;11349;53.412;-1.328;2023-04-15T04:08:03;6.00;99.90
22364;DHT22;11349;53.412;-1.328;2023-04-15T04:10:29;6.10;99.90
22364;DHT22;11349;53.412;-1.328;2023-04-15T04:12:55;6.10;99.90
22364;DHT22;11349;53.412;-1.328;2023-04-15T04:15:21;6.10;99.90
22364;DHT22;11349;53.412;-1.328;2023-04-15T04:17:46;6.00;99.90
22364;DHT22;11349;53.412;-1.328;2023-04-15T04:20:12;5.90;99.90
22364;DHT22;11349;53.412;-1.328;2023-04-15T04:22:38;5.90;99.90
22364;DHT22;11349;53.412;-1.328;2023-04-15T04:25:05;5.90;99.90
22364;DHT22;11349;53.412;-1.328;2023-04-15T04:27:33;5.90;99.90
22364;DHT22;11349;53.412;-1.328;2023-04-15T04:29:59;5.90;99.90
22364;DHT22;11349;53.412;-1.328;2023-04-15T04:32:24;5.90;99.90
22364;DHT22;11349;53.412;-1.328;2023-04-15T04:34:50;5.90;99.90
22364;DHT22;11349;53.412;-1.328;2023-04-15T04:37:16;5.90;99.90
22364;DHT22;11349;53.412;-1.328;2023-04-15T04:39:41;5.80;99.90
22364;DHT22;11349;53.412;-1.328;2023-04-15T04:42:07;5.80;99.90
22364;DHT22;11349;53.412;-1.328;2023-04-15T04:44:33;5.80;99.90
22364;DHT22;11349;53.412;-1.328;2023-04-15T04:46:59;5.90;99.90
22364;DHT22;11349;53.412;-1.328;2023-04-15T04:49:24;5.90;99.90
22364;DHT22;11349;53.412;-1.328;2023-04-15T04:51:50;5.90;99.90
22364;DHT22;11349;53.412;-1.328;2023-04-15T04:54:16;5.90;99.90
22364;DHT22;11349;53.412;-1.328;2023-04-15T04:56:42;5.90;99.90
22364;DHT22;11349;53.412;-1.328;2023-04-15T04:59:08;5.90;99.90
22364;DHT22;11349;53.412;-1.328;2023-04-15T05:01:34;5.90;99.90
22364;DHT22;11349;53.412;-1.328;2023-04-15T05:03:59;5.90;99.90
22364;DHT22;11349;53.412;-1.328;2023-04-15T05:06:25;5.90;99.90
22364;DHT22;11349;53.412;-1.328;2023-04-15T05:08:52;5.90;99.90
22364;DHT22;11349;53.412;-1.328;2023-04-15T05:11:17;5.90;99.90
22364;DHT22;11349;53.412;-1.328;2023-04-15T05:13:43;5.90;99.90
22364;DHT22;11349;53.412;-1.328;2023-04-15T05:16:09;5.90;99.90
22364;DHT22;11349;53.412;-1.328;2023-04-15T05:18:34;5.90;99.90
22364;DHT22;11349;53.412;-1.328;2023-04-15T05:21:01;5.90;99.90
22364;DHT22;11349;53.412;-1.328;2023-04-15T05:23:27;5.90;99.90
22364;DHT22;11349;53.412;-1.328;2023-04-15T05:25:53;5.90;99.90
22364;DHT22;11349;53.412;-1.328;2023-04-15T05:28:18;5.90;99.90
22364;DHT22;11349;53.412;-1.328;2023-04-15T05:30:44;5.90;99.90
22364;DHT22;11349;53.412;-1.328;2023-04-15T05:33:10;5.90;99.90
22364;DHT22;11349;53.412;-1.328;2023-04-15T05:35:36;5.90;99.90
22364;DHT22;11349;53.412;-1.328;2023-04-15T05:38:02;5.90;99.90
22364;DHT22;11349;53.412;-1.328;2023-04-15T05:40:29;5.90;99.90
22364;DHT22;11349;53.412;-1.328;2023-04-15T05:42:55;6.00;99.90
22364;DHT22;11349;53.412;-1.328;2023-04-15T05:45:21;6.00;99.90
22364;DHT22;11349;53.412;-1.328;2023-04-15T05:47:46;6.10;99.90
22364;DHT22;11349;53.412;-1.328;2023-04-15T05:50:14;6.10;99.90
22364;DHT22;11349;53.412;-1.328;2023-04-15T05:52:40;6.10;99.90
22364;DHT22;11349;53.412;-1.328;2023-04-15T05:55:06;6.00;99.90
22364;DHT22;11349;53.412;-1.328;2023-04-15T05:57:32;6.10;99.90
22364;DHT22;11349;53.412;-1.328;2023-04-15T05:59:58;6.20;99.90
22364;DHT22;11349;53.412;-1.328;2023-04-15T06:02:23;6.20;99.90
22364;DHT22;11349;53.412;-1.328;2023-04-15T06:04:49;6.10;99.90
22364;DHT22;11349;53.412;-1.328;2023-04-15T06:07:15;6.20;99.90
22364;DHT22;11349;53.412;-1.328;2023-04-15T06:09:43;6.20;99.90
22364;DHT22;11349;53.412;-1.328;2023-04-15T06:12:09;6.20;99.90
22364;DHT22;11349;53.412;-1.328;2023-04-15T06:14:37;6.20;99.90
22364;DHT22;11349;53.412;-1.328;2023-04-15T06:17:03;6.20;99.90
22364;DHT22;11349;53.412;-1.328;2023-04-15T06:19:29;6.30;99.90
22364;DHT22;11349;53.412;-1.328;2023-04-15T06:21:55;6.30;99.90
22364;DHT22;11349;53.412;-1.328;2023-04-15T06:24:21;6.30;99.90
22364;DHT22;11349;53.412;-1.328;2023-04-15T06:26:47;6.30;99.90
22364;DHT22;11349;53.412;-1.328;2023-04-15T06:29:12;6.30;99.90
22364;DHT22;11349;53.412;-1.328;2023-04-15T06:31:38;6.30;99.90
22364;DHT22;11349;53.412;-1.328;2023-04-15T06:34:04;6.40;99.90
22364;DHT22;11349;53.412;-1.328;2023-04-15T06:36:30;6.40;99.90
22364;DHT22;11349;53.412;-1.328;2023-04-15T06:38:56;6.40;99.90
22364;DHT22;11349;53.412;-1.328;2023-04-15T06:41:22;6.40;99.90
22364;DHT22;11349;53.412;-1.328;2023-04-15T06:43:48;6.40;99.90
22364;DHT22;11349;53.412;-1.328;2023-04-15T06:46:14;6.40;99.90
22364;DHT22;11349;53.412;-1.328;2023-04-15T06:48:40;6.50;99.90
22364;DHT22;11349;53.412;-1.328;2023-04-15T06:51:06;6.60;99.90
22364;DHT22;11349;53.412;-1.328;2023-04-15T06:53:32;6.60;99.90
22364;DHT22;11349;53.412;-1.328;2023-04-15T06:55:57;6.70;99.90
22364;DHT22;11349;53.412;-1.328;2023-04-15T06:58:23;6.70;99.90
22364;DHT22;11349;53.412;-1.328;2023-04-15T07:00:49;6.70;99.90
22364;DHT22;11349;53.412;-1.328;2023-04-15T07:03:14;6.80;99.90
22364;DHT22;11349;53.412;-1.328;2023-04-15T07:05:40;6.80;99.90
22364;DHT22;11349;53.412;-1.328;2023-04-15T07:08:06;6.80;99.90
22364;DHT22;11349;53.412;-1.328;2023-04-15T07:10:35;6.80;99.90
22364;DHT22;11349;53.412;-1.328;2023-04-15T07:13:01;6.80;99.90
22364;DHT22;11349;53.412;-1.328;2023-04-15T07:15:27;6.90;99.90
22364;DHT22;11349;53.412;-1.328;2023-04-15T07:17:53;7.00;99.90
22364;DHT22;11349;53.412;-1.328;2023-04-15T07:20:18;7.00;99.90
22364;DHT22;11349;53.412;-1.328;2023-04-15T07:22:44;7.10;99.90
22364;DHT22;11349;53.412;-1.328;2023-04-15T07:25:10;7.10;99.90
22364;DHT22;11349;53.412;-1.328;2023-04-15T07:27:36;7.20;99.90
22364;DHT22;11349;53.412;-1.328;2023-04-15T07:30:01;7.30;99.90
22364;DHT22;11349;53.412;-1.328;2023-04-15T07:32:27;7.30;99.90
22364;DHT22;11349;53.412;-1.328;2023-04-15T07:34:53;7.30;99.90
22364;DHT22;11349;53.412;-1.328;2023-04-15T07:37:19;7.30;99.90
22364;DHT22;11349;53.412;-1.328;2023-04-15T07:39:44;7.40;99.90
22364;DHT22;11349;53.412;-1.328;2023-04-15T07:42:10;7.50;99.90
22364;DHT22;11349;53.412;-1.328;2023-04-15T07:44:36;7.50;99.90
22364;DHT22;11349;53.412;-1.328;2023-04-15T07:47:02;7.50;99.90
22364;DHT22;11349;53.412;-1.328;2023-04-15T07:49:28;7.60;99.90
22364;DHT22;11349;53.412;-1.328;2023-04-15T07:51:53;7.50;99.90
22364;DHT22;11349;53.412;-1.328;2023-04-15T07:54:20;7.60;99.90
22364;DHT22;11349;53.412;-1.328;2023-04-15T07:56:46;7.70;99.90
22364;DHT22;11349;53.412;-1.328;2023-04-15T07:59:14;7.70;99.90
22364;DHT22;11349;53.412;-1.328;2023-04-15T08:01:42;7.70;99.90
22364;DHT22;11349;53.412;-1.328;2023-04-15T08:04:08;7.80;99.90
22364;DHT22;11349;53.412;-1.328;2023-04-15T08:06:34;7.70;99.90
22364;DHT22;11349;53.412;-1.328;2023-04-15T08:09:01;7.70;99.90
22364;DHT22;11349;53.412;-1.328;2023-04-15T08:11:27;7.70;99.90
22364;DHT22;11349;53.412;-1.328;2023-04-15T08:13:52;7.70;99.90
22364;DHT22;11349;53.412;-1.328;2023-04-15T08:16:19;7.80;99.90
22364;DHT22;11349;53.412;-1.328;2023-04-15T08:18:46;7.80;99.90
22364;DHT22;11349;53.412;-1.328;2023-04-15T08:21:16;7.80;99.90
22364;DHT22;11349;53.412;-1.328;2023-04-15T08:23:43;7.80;99.90
22364;DHT22;11349;53.412;-1.328;2023-04-15T08:26:09;7.90;99.90
22364;DHT22;11349;53.412;-1.328;2023-04-15T08:28:36;7.90;99.90
22364;DHT22;11349;53.412;-1.328;2023-04-15T08:31:02;7.90;99.90
22364;DHT22;11349;53.412;-1.328;2023-04-15T08:33:28;8.00;99.90
22364;DHT22;11349;53.412;-1.328;2023-04-15T08:35:53;8.10;99.90
22364;DHT22;11349;53.412;-1.328;2023-04-15T08:38:19;8.20;99.90
22364;DHT22;11349;53.412;-1.328;2023-04-15T08:40:45;8.20;99.90
22364;DHT22;11349;53.412;-1.328;2023-04-15T08:43:34;8.30;99.90
22364;DHT22;11349;53.412;-1.328;2023-04-15T08:46:07;8.30;99.90
22364;DHT22;11349;53.412;-1.328;2023-04-15T08:48:36;8.20;99.90
22364;DHT22;11349;53.412;-1.328;2023-04-15T08:51:03;8.40;99.90
22364;DHT22;11349;53.412;-1.328;2023-04-15T08:53:29;8.50;99.90
22364;DHT22;11349;53.412;-1.328;2023-04-15T08:55:57;8.60;99.90
22364;DHT22;11349;53.412;-1.328;2023-04-15T08:58:23;8.70;99.90
22364;DHT22;11349;53.412;-1.328;2023-04-15T09:00:49;8.80;99.90
22364;DHT22;11349;53.412;-1.328;2023-04-15T09:03:15;8.80;99.90
22364;DHT22;11349;53.412;-1.328;2023-04-15T09:05:42;8.80;99.90
22364;DHT22;11349;53.412;-1.328;2023-04-15T09:08:08;8.80;99.90
22364;DHT22;11349;53.412;-1.328;2023-04-15T09:10:34;9.10;99.90
22364;DHT22;11349;53.412;-1.328;2023-04-15T09:13:00;9.50;99.90
22364;DHT22;11349;53.412;-1.328;2023-04-15T09:15:27;9.60;99.90
22364;DHT22;11349;53.412;-1.328;2023-04-15T09:17:54;9.90;99.90
22364;DHT22;11349;53.412;-1.328;2023-04-15T09:20:20;10.00;99.90
22364;DHT22;11349;53.412;-1.328;2023-04-15T09:22:47;10.30;99.90
22364;DHT22;11349;53.412;-1.328;2023-04-15T09:27:56;9.90;99.90
22364;DHT22;11349;53.412;-1.328;2023-04-15T09:30:22;10.10;99.90
22364;DHT22;11349;53.412;-1.328;2023-04-15T09:32:57;10.20;99.90
22364;DHT22;11349;53.412;-1.328;2023-04-15T09:35:24;10.40;99.90
22364;DHT22;11349;53.412;-1.328;2023-04-15T09:37:51;10.60;99.90
22364;DHT22;11349;53.412;-1.328;2023-04-15T09:40:34;10.60;99.90
22364;DHT22;11349;53.412;-1.328;2023-04-15T09:43:01;10.80;99.90
22364;DHT22;11349;53.412;-1.328;2023-04-15T09:45:28;10.70;99.90
22364;DHT22;11349;53.412;-1.328;2023-04-15T09:47:54;10.80;99.90
22364;DHT22;11349;53.412;-1.328;2023-04-15T09:50:21;10.90;99.90
22364;DHT22;11349;53.412;-1.328;2023-04-15T09:52:47;10.60;99.90
22364;DHT22;11349;53.412;-1.328;2023-04-15T09:55:13;10.90;99.90
22364;DHT22;11349;53.412;-1.328;2023-04-15T09:57:40;11.20;99.90
22364;DHT22;11349;53.412;-1.328;2023-04-15T10:00:07;10.90;99.90
22364;DHT22;11349;53.412;-1.328;2023-04-15T10:02:34;11.20;99.90
22364;DHT22;11349;53.412;-1.328;2023-04-15T10:05:01;11.00;99.90
22364;DHT22;11349;53.412;-1.328;2023-04-15T10:07:27;11.20;99.90
22364;DHT22;11349;53.412;-1.328;2023-04-15T10:09:54;11.10;99.90
22364;DHT22;11349;53.412;-1.328;2023-04-15T10:12:21;10.90;99.90
22364;DHT22;11349;53.412;-1.328;2023-04-15T10:14:57;11.10;99.90
22364;DHT22;11349;53.412;-1.328;2023-04-15T10:17:26;11.40;99.90
22364;DHT22;11349;53.412;-1.328;2023-04-15T10:20:00;11.60;99.90
22364;DHT22;11349;53.412;-1.328;2023-04-15T10:22:27;11.40;99.90
22364;DHT22;11349;53.412;-1.328;2023-04-15T10:24:55;11.60;99.90
22364;DHT22;11349;53.412;-1.328;2023-04-15T10:27:21;11.60;99.90
22364;DHT22;11349;53.412;-1.328;2023-04-15T10:29:49;11.80;99.90
22364;DHT22;11349;53.412;-1.328;2023-04-15T10:32:17;11.90;99.90
22364;DHT22;11349;53.412;-1.328;2023-04-15T10:34:45;11.70;99.90
22364;DHT22;11349;53.412;-1.328;2023-04-15T10:37:11;11.30;99.90
22364;DHT22;11349;53.412;-1.328;2023-04-15T10:39:37;11.60;99.90
22364;DHT22;11349;53.412;-1.328;2023-04-15T10:42:17;11.60;99.90
22364;DHT22;11349;53.412;-1.328;2023-04-15T10:44:56;11.60;99.90
22364;DHT22;11349;53.412;-1.328;2023-04-15T10:47:21;11.90;99.90
22364;DHT22;11349;53.412;-1.328;2023-04-15T10:49:55;12.00;99.90
22364;DHT22;11349;53.412;-1.328;2023-04-15T10:52:26;11.70;99.90
22364;DHT22;11349;53.412;-1.328;2023-04-15T10:55:24;11.50;99.90
22364;DHT22;11349;53.412;-1.328;2023-04-15T10:57:58;12.00;99.90
22364;DHT22;11349;53.412;-1.328;2023-04-15T11:00:29;12.00;99.90
22364;DHT22;11349;53.412;-1.328;2023-04-15T11:03:07;12.10;99.90
22364;DHT22;11349;53.412;-1.328;2023-04-15T11:05:48;12.20;99.90
22364;DHT22;11349;53.412;-1.328;2023-04-15T11:08:14;12.00;99.90
22364;DHT22;11349;53.412;-1.328;2023-04-15T11:15:45;11.80;99.90
22364;DHT22;11349;53.412;-1.328;2023-04-15T11:18:37;12.00;99.90
22364;DHT22;11349;53.412;-1.328;2023-04-15T11:21:07;12.00;99.90
22364;DHT22;11349;53.412;-1.328;2023-04-15T11:23:38;12.10;99.90
22364;DHT22;11349;53.412;-1.328;2023-04-15T11:26:07;11.80;99.90
22364;DHT22;11349;53.412;-1.328;2023-04-15T11:28:43;12.10;99.90
22364;DHT22;11349;53.412;-1.328;2023-04-15T11:31:14;12.00;99.90
22364;DHT22;11349;53.412;-1.328;2023-04-15T11:33:45;12.10;99.90
22364;DHT22;11349;53.412;-1.328;2023-04-15T11:36:11;12.20;99.90
22364;DHT22;11349;53.412;-1.328;2023-04-15T11:38:41;12.10;99.90
22364;DHT22;11349;53.412;-1.328;2023-04-15T11:41:07;12.20;99.90
22364;DHT22;11349;53.412;-1.328;2023-04-15T11:43:33;12.30;99.90
22364;DHT22;11349;53.412;-1.328;2023-04-15T11:46:01;12.40;99.90
22364;DHT22;11349;53.412;-1.328;2023-04-15T11:48:32;12.20;99.90
22364;DHT22;11349;53.412;-1.328;2023-04-15T11:53:44;12.60;99.90
22364;DHT22;11349;53.412;-1.328;2023-04-15T11:58:41;12.50;99.90
22364;DHT22;11349;53.412;-1.328;2023-04-15T12:01:07;12.70;99.90
22364;DHT22;11349;53.412;-1.328;2023-04-15T12:03:43;12.90;99.90
22364;DHT22;11349;53.412;-1.328;2023-04-15T12:06:23;13.10;99.90
22364;DHT22;11349;53.412;-1.328;2023-04-15T12:08:56;13.20;99.90
22364;DHT22;11349;53.412;-1.328;2023-04-15T12:13:56;13.10;99.90
22364;DHT22;11349;53.412;-1.328;2023-04-15T12:16:23;12.90;99.90
22364;DHT22;11349;53.412;-1.328;2023-04-15T12:18:53;13.10;99.90
22364;DHT22;11349;53.412;-1.328;2023-04-15T12:21:24;12.60;99.90
22364;DHT22;11349;53.412;-1.328;2023-04-15T12:23:55;13.00;99.90
22364;DHT22;11349;53.412;-1.328;2023-04-15T12:26:42;13.00;99.90
22364;DHT22;11349;53.412;-1.328;2023-04-15T12:29:07;13.20;99.90
22364;DHT22;11349;53.412;-1.328;2023-04-15T12:31:45;13.40;99.90
22364;DHT22;11349;53.412;-1.328;2023-04-15T12:34:12;13.10;99.90
22364;DHT22;11349;53.412;-1.328;2023-04-15T12:36:41;13.10;99.90
22364;DHT22;11349;53.412;-1.328;2023-04-15T12:39:09;13.10;99.90
22364;DHT22;11349;53.412;-1.328;2023-04-15T12:41:35;13.30;99.90
22364;DHT22;11349;53.412;-1.328;2023-04-15T12:44:00;13.30;99.90
22364;DHT22;11349;53.412;-1.328;2023-04-15T12:46:27;13.10;99.90
22364;DHT22;11349;53.412;-1.328;2023-04-15T12:48:53;13.10;99.90
22364;DHT22;11349;53.412;-1.328;2023-04-15T12:51:18;13.10;99.90
22364;DHT22;11349;53.412;-1.328;2023-04-15T12:53:46;13.10;99.90
22364;DHT22;11349;53.412;-1.328;2023-04-15T12:56:12;13.20;99.90
22364;DHT22;11349;53.412;-1.328;2023-04-15T12:58:38;13.40;99.90
22364;DHT22;11349;53.412;-1.328;2023-04-15T13:01:04;13.60;99.90
22364;DHT22;11349;53.412;-1.328;2023-04-15T13:03:30;13.60;99.90
22364;DHT22;11349;53.412;-1.328;2023-04-15T13:05:56;13.60;99.90
22364;DHT22;11349;53.412;-1.328;2023-04-15T13:08:22;14.10;99.90
22364;DHT22;11349;53.412;-1.328;2023-04-15T13:10:48;14.00;99.90
22364;DHT22;11349;53.412;-1.328;2023-04-15T13:13:13;14.20;99.90
22364;DHT22;11349;53.412;-1.328;2023-04-15T13:15:39;13.90;99.90
22364;DHT22;11349;53.412;-1.328;2023-04-15T13:18:06;14.00;99.90
22364;DHT22;11349;53.412;-1.328;2023-04-15T13:20:32;14.00;99.90
22364;DHT22;11349;53.412;-1.328;2023-04-15T13:22:58;14.10;99.90
22364;DHT22;11349;53.412;-1.328;2023-04-15T13:25:24;14.20;99.90
22364;DHT22;11349;53.412;-1.328;2023-04-15T13:27:50;14.20;99.90
22364;DHT22;11349;53.412;-1.328;2023-04-15T13:30:16;14.40;99.90
22364;DHT22;11349;53.412;-1.328;2023-04-15T13:32:41;14.70;99.90
22364;DHT22;11349;53.412;-1.328;2023-04-15T13:35:07;14.70;99.90
22364;DHT22;11349;53.412;-1.328;2023-04-15T13:37:33;14.80;99.90
22364;DHT22;11349;53.412;-1.328;2023-04-15T13:39:59;14.40;99.90
22364;DHT22;11349;53.412;-1.328;2023-04-15T13:42:25;14.40;99.90
22364;DHT22;11349;53.412;-1.328;2023-04-15T13:44:52;14.50;99.90
22364;DHT22;11349;53.412;-1.328;2023-04-15T13:47:20;14.70;99.90
22364;DHT22;11349;53.412;-1.328;2023-04-15T13:49:46;14.60;99.90
22364;DHT22;11349;53.412;-1.328;2023-04-15T13:52:12;15.00;99.90
22364;DHT22;11349;53.412;-1.328;2023-04-15T13:54:40;14.90;99.90
22364;DHT22;11349;53.412;-1.328;2023-04-15T13:57:06;15.20;99.90
22364;DHT22;11349;53.412;-1.328;2023-04-15T13:59:35;15.10;99.90
22364;DHT22;11349;53.412;-1.328;2023-04-15T14:02:01;15.10;99.90
22364;DHT22;11349;53.412;-1.328;2023-04-15T14:04:27;15.20;99.90
22364;DHT22;11349;53.412;-1.328;2023-04-15T14:06:52;15.20;99.90
22364;DHT22;11349;53.412;-1.328;2023-04-15T14:09:18;15.00;99.90
22364;DHT22;11349;53.412;-1.328;2023-04-15T14:11:46;15.00;99.90
22364;DHT22;11349;53.412;-1.328;2023-04-15T14:14:12;14.60;99.90
22364;DHT22;11349;53.412;-1.328;2023-04-15T14:16:38;14.60;99.90
22364;DHT22;11349;53.412;-1.328;2023-04-15T14:19:03;14.90;99.90
22364;DHT22;11349;53.412;-1.328;2023-04-15T14:21:29;14.70;99.90
22364;DHT22;11349;53.412;-1.328;2023-04-15T14:23:57;14.60;99.90
22364;DHT22;11349;53.412;-1.328;2023-04-15T14:26:23;14.60;99.90
22364;DHT22;11349;53.412;-1.328;2023-04-15T14:28:49;14.40;99.90
22364;DHT22;11349;53.412;-1.328;2023-04-15T14:31:15;14.40;99.90
22364;DHT22;11349;53.412;-1.328;2023-04-15T14:33:41;14.30;99.90
22364;DHT22;11349;53.412;-1.328;2023-04-15T14:36:07;14.30;99.90
22364;DHT22;11349;53.412;-1.328;2023-04-15T14:38:34;14.40;99.90
22364;DHT22;11349;53.412;-1.328;2023-04-15T14:41:03;14.50;99.90
22364;DHT22;11349;53.412;-1.328;2023-04-15T14:43:29;14.30;99.90
22364;DHT22;11349;53.412;-1.328;2023-04-15T14:45:55;14.30;99.90
22364;DHT22;11349;53.412;-1.328;2023-04-15T14:48:20;14.30;99.90
22364;DHT22;11349;53.412;-1.328;2023-04-15T14:50:46;14.40;99.90
22364;DHT22;11349;53.412;-1.328;2023-04-15T14:53:12;14.30;99.90
22364;DHT22;11349;53.412;-1.328;2023-04-15T14:55:38;14.30;99.90
22364;DHT22;11349;53.412;-1.328;2023-04-15T14:58:04;14.50;99.90
22364;DHT22;11349;53.412;-1.328;2023-04-15T15:00:30;14.40;99.90
22364;DHT22;11349;53.412;-1.328;2023-04-15T15:02:56;14.40;99.90
22364;DHT22;11349;53.412;-1.328;2023-04-15T15:05:21;14.60;99.90
22364;DHT22;11349;53.412;-1.328;2023-04-15T15:07:47;14.70;99.90
22364;DHT22;11349;53.412;-1.328;2023-04-15T15:10:13;14.50;99.90
22364;DHT22;11349;53.412;-1.328;2023-04-15T15:12:38;14.50;99.90
22364;DHT22;11349;53.412;-1.328;2023-04-15T15:15:05;14.60;99.90
22364;DHT22;11349;53.412;-1.328;2023-04-15T15:17:31;14.90;99.90
22364;DHT22;11349;53.412;-1.328;2023-04-15T15:19:56;15.00;99.90
22364;DHT22;11349;53.412;-1.328;2023-04-15T15:22:22;15.10;99.90
22364;DHT22;11349;53.412;-1.328;2023-04-15T15:24:48;15.30;99.90
22364;DHT22;11349;53.412;-1.328;2023-04-15T15:27:14;15.50;99.90
22364;DHT22;11349;53.412;-1.328;2023-04-15T15:29:39;15.40;99.90
22364;DHT22;11349;53.412;-1.328;2023-04-15T15:32:05;15.10;99.90
22364;DHT22;11349;53.412;-1.328;2023-04-15T15:34:31;14.90;99.90
22364;DHT22;11349;53.412;-1.328;2023-04-15T15:36:57;14.80;99.90
22364;DHT22;11349;53.412;-1.328;2023-04-15T15:39:23;14.70;99.60